Time;durP1;ratioP1;P1;durP2;ratioP2;P2;SDS_P1;SDS_P2;PMS_P1;PMS_P2;Temp;Humidity;BMP_temperature;BMP_pressure;BME280_temperature;BME280_humidity;BME280_pressure;Samples;Min_cycle;Max_cycle;Signal;HPM_P1;HPM_P2
2022/05/11 03:56:26;;;;;;;7.35;4.45;;;;;;;11.63;89.13;100712.16;6526145;26;20076;-88
2022/05/11 03:59:29;;;;;;;5.43;4.10;;;;;;;11.71;89.26;100706.72;6587961;27;34052;-88
2022/05/11 04:02:32;;;;;;;6.07;4.35;;;;;;;11.80;88.55;100717.28;6571166;27;32390;-88
2022/05/11 04:05:35;;;;;;;6.53;4.53;;;;;;;11.88;88.82;100713.72;6560892;27;33335;-88
2022/05/11 04:08:38;;;;;;;8.73;4.50;;;;;;;11.93;88.94;100707.78;6577805;27;34051;-90
2022/05/11 04:11:41;;;;;;;6.40;4.87;;;;;;;11.99;89.45;100718.72;6558741;27;32894;-90
2022/05/11 04:14:44;;;;;;;4.82;4.05;;;;;;;12.07;88.64;100719.69;6578436;27;34419;-90
2022/05/11 04:17:47;;;;;;;6.20;3.83;;;;;;;12.18;88.12;100728.19;6578583;27;34276;-90
2022/05/11 04:20:50;;;;;;;5.70;4.03;;;;;;;12.34;87.99;100720.97;6579403;27;35253;-92
2022/05/11 04:23:53;;;;;;;5.72;3.92;;;;;;;12.45;87.65;100729.50;6567928;26;33241;-92
2022/05/11 04:26:55;;;;;;;4.70;4.30;;;;;;;12.63;86.43;100725.63;6582123;27;35382;-93
2022/05/11 04:29:59;;;;;;;5.07;3.80;;;;;;;12.83;85.69;100736.78;6579884;27;34120;-90
2022/05/11 04:33:02;;;;;;;4.20;3.80;;;;;;;13.00;85.37;100721.22;6579053;27;34171;-89
2022/05/11 04:36:06;;;;;;;4.47;4.05;;;;;;;13.12;85.27;100725.16;6558698;27;32726;-88
2022/05/11 04:39:08;;;;;;;5.65;4.30;;;;;;;13.17;85.83;100725.44;6562765;27;32691;-89
2022/05/11 04:42:13;;;;;;;4.65;4.20;;;;;;;13.30;86.14;100720.22;6579573;27;34198;-89
2022/05/11 04:45:16;;;;;;;6.43;4.05;;;;;;;13.45;85.35;100731.03;6559327;27;32548;-89
2022/05/11 04:48:19;;;;;;;7.55;4.20;;;;;;;13.61;84.61;100730.84;6561033;27;33267;-89
2022/05/11 04:51:23;;;;;;;7.53;3.85;;;;;;;13.78;83.54;100731.47;6578072;27;33934;-89
2022/05/11 04:54:26;;;;;;;7.47;4.30;;;;;;;14.01;81.90;100725.91;6558047;27;32551;-88
2022/05/11 04:57:29;;;;;;;5.62;4.25;;;;;;;14.15;80.95;100726.03;6597012;27;34419;-89
2022/05/11 05:00:34;;;;;;;7.03;4.30;;;;;;;14.32;80.18;100732.03;6605729;27;34563;-88
2022/05/11 05:03:36;;;;;;;4.70;3.90;;;;;;;14.45;78.48;100724.00;6587450;27;32727;-88
2022/05/11 05:06:39;;;;;;;5.10;4.12;;;;;;;14.59;77.44;100733.97;6587792;27;32757;-87
2022/05/11 05:09:43;;;;;;;6.50;4.57;;;;;;;14.66;78.07;100731.34;6607020;27;34099;-87
2022/05/11 05:12:46;;;;;;;8.18;4.50;;;;;;;14.77;77.91;100738.94;6592208;27;32190;-87
2022/05/11 05:15:56;;;;;;;6.07;4.43;;;;;;;14.98;76.13;100740.75;6591455;26;32660;-88
2022/05/11 05:19:02;;;;;;;6.30;4.60;;;;;;;15.16;74.47;100732.09;6587810;27;32475;-87
2022/05/11 05:22:05;;;;;;;6.72;4.45;;;;;;;15.42;72.65;100737.69;6611545;27;34527;-87
2022/05/11 05:25:09;;;;;;;8.48;5.12;;;;;;;15.56;72.04;100738.59;6584320;27;32736;-87
2022/05/11 05:31:36;;;;;;;7.22;4.82;;;;;;;15.82;72.16;100731.59;6604602;27;34299;-87
2022/05/11 05:34:39;;;;;;;7.25;4.85;;;;;;;15.84;72.10;100737.69;6604881;27;34566;-87
2022/05/11 05:37:42;;;;;;;6.75;4.85;;;;;;;15.95;71.35;100737.09;6607169;27;33980;-87
2022/05/11 05:40:46;;;;;;;5.62;4.37;;;;;;;16.08;70.64;100736.28;6580970;27;33316;-87
2022/05/11 05:43:49;;;;;;;8.70;5.43;;;;;;;16.21;69.85;100735.50;6585092;27;34511;-88
2022/05/11 05:46:51;;;;;;;7.95;5.10;;;;;;;16.42;68.08;100740.75;6584690;27;32829;-88
2022/05/11 05:49:54;;;;;;;5.12;4.10;;;;;;;16.46;68.09;100731.13;6582435;27;32848;-88
2022/05/11 05:52:58;;;;;;;6.07;4.95;;;;;;;16.45;68.53;100734.06;6603877;27;34103;-87
2022/05/11 05:56:01;;;;;;;5.97;4.47;;;;;;;16.57;67.85;100737.00;6604445;27;34021;-88
2022/05/11 05:59:09;;;;;;;4.35;3.62;;;;;;;16.83;66.90;100731.59;6583004;27;32606;-87
2022/05/11 06:02:13;;;;;;;5.32;3.65;;;;;;;17.10;64.57;100726.94;6600341;27;34555;-87
2022/05/11 06:05:16;;;;;;;5.35;3.58;;;;;;;17.35;63.92;100729.00;6585252;27;32615;-87
2022/05/11 06:08:19;;;;;;;6.65;4.25;;;;;;;17.51;62.58;100733.94;6586635;27;33667;-87
2022/05/11 06:11:22;;;;;;;5.03;3.60;;;;;;;17.62;62.10;100733.28;6612236;27;35634;-87
2022/05/11 06:14:25;;;;;;;4.72;3.90;;;;;;;17.83;62.02;100734.06;6606736;27;35314;-91
2022/05/11 06:17:33;;;;;;;6.80;4.53;;;;;;;18.04;61.58;100731.00;6598994;27;35092;-91
2022/05/11 06:20:37;;;;;;;10.77;4.55;;;;;;;18.25;59.83;100732.56;6599420;27;32521;-88
2022/05/11 06:23:41;;;;;;;6.93;3.87;;;;;;;18.38;58.48;100739.00;6607595;27;34018;-88
2022/05/11 06:26:43;;;;;;;5.05;3.33;;;;;;;18.58;57.55;100740.50;6585652;27;32652;-87
2022/05/11 06:30:06;;;;;;;5.87;3.65;;;;;;;18.74;57.06;100732.84;6584935;27;33315;-86
2022/05/11 06:33:10;;;;;;;3.90;3.47;;;;;;;18.90;56.30;100735.03;6606700;27;34178;-87
2022/05/11 06:36:13;;;;;;;6.12;3.95;;;;;;;19.21;56.34;100734.06;6590964;26;32767;-87
2022/05/11 06:39:16;;;;;;;5.45;3.87;;;;;;;19.31;54.74;100721.81;6603270;27;33896;-86
2022/05/11 06:42:20;;;;;;;4.53;3.65;;;;;;;19.51;54.13;100733.34;6584242;27;34080;-87
2022/05/11 06:45:23;;;;;;;3.70;3.25;;;;;;;19.67;53.88;100729.19;6604365;27;34026;-86
2022/05/11 06:48:28;;;;;;;6.37;3.92;;;;;;;19.85;52.12;100736.53;6603492;27;33564;-87
2022/05/11 06:51:31;;;;;;;4.97;4.05;;;;;;;19.92;52.84;100727.19;6603436;27;33756;-88
2022/05/11 07:01:18;;;;;;;4.28;3.55;;;;;;;20.51;50.81;100721.87;6603091;27;34646;-87
2022/05/11 07:04:22;;;;;;;4.53;3.92;;;;;;;20.81;50.41;100726.47;6611921;27;33636;-87
2022/05/11 07:07:26;;;;;;;5.53;3.70;;;;;;;20.99;49.33;100715.41;6602699;27;34941;-87
2022/05/11 07:10:31;;;;;;;6.25;3.37;;;;;;;21.25;48.27;100715.97;6587828;27;33060;-87
2022/05/11 07:13:34;;;;;;;8.23;3.60;;;;;;;21.26;48.91;100721.22;6586992;27;32990;-88
2022/05/11 07:16:37;;;;;;;6.57;3.80;;;;;;;21.60;48.25;100715.94;6610379;27;34215;-88
2022/05/11 07:19:43;;;;;;;4.50;3.87;;;;;;;21.69;48.06;100717.22;6607563;27;34063;-87
2022/05/11 07:22:46;;;;;;;3.17;2.95;;;;;;;21.83;47.03;100716.94;6586297;27;32297;-88
2022/05/11 07:25:49;;;;;;;3.87;3.33;;;;;;;22.06;45.11;100705.88;6603614;27;34059;-86
2022/05/11 07:28:52;;;;;;;5.18;3.37;;;;;;;22.02;44.92;100709.34;6583200;27;33728;-86
2022/05/11 07:31:55;;;;;;;5.60;3.40;;;;;;;22.25;44.79;100713.91;6582958;27;32784;-86
2022/05/11 07:34:58;;;;;;;5.05;3.22;;;;;;;22.46;45.04;100701.37;6603146;27;33464;-87
2022/05/11 07:38:06;;;;;;;4.30;3.12;;;;;;;22.68;44.10;100696.81;6582584;27;32333;-87
2022/05/11 07:41:10;;;;;;;3.67;2.92;;;;;;;22.97;43.87;100694.00;6602331;27;34324;-90
2022/05/11 07:44:13;;;;;;;3.95;2.85;;;;;;;23.23;41.32;100698.75;6603241;27;33958;-91
2022/05/11 07:47:17;;;;;;;6.00;3.30;;;;;;;23.16;40.17;100703.59;6603925;27;34607;-87
2022/05/11 07:50:20;;;;;;;4.90;2.42;;;;;;;22.99;41.14;100702.78;6603384;27;33569;-86
2022/05/11 07:53:23;;;;;;;3.92;2.65;;;;;;;23.27;41.35;100702.63;6583394;27;32515;-87
2022/05/11 07:59:57;;;;;;;3.22;2.55;;;;;;;23.68;39.53;100699.59;6588791;27;32892;-87
2022/05/11 08:03:00;;;;;;;3.12;2.50;;;;;;;23.92;38.63;100700.16;6603669;27;34650;-87
2022/05/11 08:06:05;;;;;;;2.85;2.05;;;;;;;23.98;39.12;100693.59;6587027;26;32435;-87
2022/05/11 08:09:08;;;;;;;2.12;1.92;;;;;;;24.06;37.96;100700.56;6589332;27;32685;-88
2022/05/11 08:12:11;;;;;;;1.60;1.50;;;;;;;23.88;36.26;100690.78;6603577;27;34866;-87
2022/05/11 08:15:18;;;;;;;1.73;1.62;;;;;;;23.98;36.58;100694.47;6605523;27;34566;-87
2022/05/11 08:18:21;;;;;;;1.40;1.23;;;;;;;24.07;36.53;100692.06;6607358;26;34041;-88
2022/05/11 08:21:25;;;;;;;3.87;2.08;;;;;;;24.06;35.94;100686.81;6583803;27;33533;-86
2022/05/11 08:24:28;;;;;;;3.05;1.73;;;;;;;24.12;35.88;100683.84;6582634;27;32680;-88
2022/05/11 08:27:31;;;;;;;1.75;1.60;;;;;;;24.32;35.79;100682.41;6582806;27;32820;-86
2022/05/11 08:33:59;;;;;;;1.70;1.60;;;;;;;24.51;36.36;100689.22;6587231;27;32813;-86
2022/05/11 08:37:17;;;;;;;1.70;1.60;;;;;;;24.82;35.27;100681.16;6579866;26;33643;-86
2022/05/11 08:40:51;;;;;;;2.78;1.85;;;;;;;24.66;32.25;100685.75;6602726;27;34110;-87
2022/05/11 08:44:02;;;;;;;1.58;1.00;;;;;;;24.39;29.31;100683.81;6581675;27;32622;-90
2022/05/11 08:47:16;;;;;;;1.17;1.08;;;;;;;24.39;28.41;100683.81;6602149;27;34841;-87
2022/05/11 08:50:24;;;;;;;4.32;1.80;;;;;;;24.61;29.62;100686.53;6603540;27;34936;-87
2022/05/11 08:53:41;;;;;;;2.03;1.67;;;;;;;24.97;30.47;100685.94;6584528;27;33426;-86
2022/05/11 08:56:55;;;;;;;1.40;1.30;;;;;;;25.00;30.62;100680.72;6602434;26;33954;-86
2022/05/11 09:00:05;;;;;;;1.30;1.20;;;;;;;24.91;29.89;100684.25;6602944;27;34006;-86
2022/05/11 09:03:39;;;;;;;1.95;1.37;;;;;;;24.75;28.93;100675.88;6609350;27;33798;-87
2022/05/11 09:06:44;;;;;;;5.32;1.48;;;;;;;24.89;29.21;100670.72;6620247;27;34064;-86
2022/05/11 09:09:50;;;;;;;1.95;1.65;;;;;;;25.36;29.09;100674.59;6595401;27;33013;-86
2022/05/11 09:12:59;;;;;;;1.27;1.17;;;;;;;25.40;30.12;100670.22;6591750;27;32917;-86
2022/05/11 09:16:03;;;;;;;;;;;;;;;25.69;30.95;100665.06;6602021;27;34126;-86
2022/05/11 09:19:10;;;;;;;;;;;;;;;25.78;30.32;100667.03;6604937;27;32975;-87
2022/05/11 09:22:17;;;;;;;;;;;;;;;26.01;31.70;100664.91;6601352;27;32965;-87
2022/05/11 09:25:20;;;;;;;;;;;;;;;26.01;31.21;100659.38;6584559;27;35265;-86
2022/05/11 09:28:28;;;;;;;;;;;;;;;26.16;30.94;100661.31;6604834;27;35313;-86
2022/05/11 09:31:31;;;;;;;;;;;;;;;26.22;31.55;100660.22;6605070;27;34749;-87
2022/05/11 09:34:35;;;;;;;;;;;;;;;26.52;31.05;100669.62;6606087;27;35150;-87
2022/05/11 09:37:38;;;;;;;;;;;;;;;26.85;30.86;100662.66;6597033;27;34181;-87
2022/05/11 09:40:50;;;;;;;;;;;;;;;26.61;29.96;100663.25;6612189;27;35302;-90
2022/05/11 09:43:58;;;;;;;;;;;;;;;26.64;31.13;100661.88;6585940;27;34788;-87
2022/05/11 09:47:21;;;;;;;;;;;;;;;26.86;29.82;100662.41;6592231;27;35566;-86
2022/05/11 09:50:27;;;;;;;;;;;;;;;26.73;29.04;100656.63;6603916;27;35262;-86
2022/05/11 09:53:32;;;;;;;;;;;;;;;26.92;27.16;100658.53;6584214;27;32672;-86
2022/05/11 09:56:40;;;;;;;;;;;;;;;27.32;27.95;100662.31;6584240;27;33270;-85
2022/05/11 09:59:45;;;;;;;;;;;;;;;27.25;27.86;100656.22;6583940;27;32659;-86
2022/05/11 10:02:50;;;;;;;;;;;;;;;27.14;27.95;100655.44;6585471;27;34351;-86
2022/05/11 10:05:53;;;;;;;;;;;;;;;26.56;29.81;100655.00;6605056;27;34710;-86
2022/05/11 10:08:58;;;;;;;;;;;;;;;26.24;29.65;100650.56;6584301;27;35033;-86
2022/05/11 10:12:02;;;;;;;;;;;;;;;26.16;29.98;100653.87;6562888;27;35025;-82
2022/05/11 10:22:18;;;;;;;;;;;;;;;26.87;29.04;100653.00;6569803;27;184568;-82
2022/05/11 10:25:28;;;;;;;;;;;;;;;27.06;29.02;100649.66;6577901;27;34016;-84
2022/05/11 10:28:55;;;;;;;;;;;;;;;27.93;29.39;100649.25;6577189;27;34888;-83
2022/05/11 10:32:08;;;;;;;;;;;;;;;28.60;28.26;100646.81;6539472;27;32947;-83
2022/05/11 10:35:14;;;;;;;;;;;;;;;28.98;26.56;100652.50;6578321;27;34121;-87
2022/05/11 10:38:18;;;;;;;;;;;;;;;29.28;26.28;100646.66;6578791;27;34350;-87
2022/05/11 10:41:30;;;;;;;;;;;;;;;29.96;26.25;100645.44;6579811;27;34580;-84
2022/05/11 10:44:44;;;;;;;;;;;;;;;29.70;27.43;100638.62;6560509;27;32859;-83
2022/05/11 10:48:13;;;;;;;;;;;;;;;29.67;26.47;100631.72;6578699;27;34010;-83
2022/05/11 10:51:35;;;;;;;;;;;;;;;30.41;25.33;100636.69;6577482;27;34293;-83
2022/05/11 10:54:50;;;;;;;;;;;;;;;30.50;24.47;100630.09;6577068;27;33998;-83
2022/05/11 10:58:08;;;;;;;;;;;;;;;30.69;24.19;100630.06;6553063;27;33594;-83
2022/05/11 11:01:12;;;;;;;;;;;;;;;31.37;24.46;100625.69;6553398;27;35394;-83
2022/05/11 11:04:15;;;;;;;;;;;;;;;31.11;23.01;100613.41;6556468;27;34325;-82
2022/05/11 11:07:30;;;;;;;;;;;;;;;30.54;23.92;100626.72;6552361;27;33924;-82
2022/05/11 11:10:48;;;;;;;;;;;;;;;30.22;24.61;100628.41;6554572;27;34973;-83
2022/05/11 11:13:54;;;;;;;;;;;;;;;30.60;24.02;100626.34;6579285;27;34854;-82
2022/05/11 11:16:57;;;;;;;;;;;;;;;31.11;23.96;100616.19;6555077;27;34352;-86
2022/05/11 11:20:02;;;;;;;;;;;;;;;30.13;24.30;100616.28;6553290;27;33131;-87
2022/05/11 11:23:17;;;;;;;;;;;;;;;30.30;24.97;100612.97;6574263;27;34402;-87
2022/05/11 11:26:28;;;;;;;;;;;;;;;30.74;24.04;100609.66;6572331;27;34637;-83
2022/05/11 11:29:32;;;;;;;;;;;;;;;31.64;22.71;100612.84;6552356;27;34039;-82
2022/05/11 11:32:54;;;;;;;;;;;;;;;31.66;22.67;100598.62;6550522;27;34220;-82
2022/05/11 11:36:05;;;;;;;;;;;;;;;31.16;23.41;100593.84;6552548;27;32633;-82
2022/05/11 11:39:10;;;;;;;;;;;;;;;30.46;23.94;100592.97;6559200;27;33212;-83
2022/05/11 11:42:26;;;;;;;;;;;;;;;32.24;22.59;100592.19;6583778;27;35389;-82
2022/05/11 11:45:39;;;;;;;;;;;;;;;34.06;20.73;100587.16;6558660;27;32850;-83
2022/05/11 11:48:45;;;;;;;;;;;;;;;34.93;19.81;100575.69;6555398;27;32854;-83
2022/05/11 11:51:52;;;;;;;;;;;;;;;35.42;18.76;100580.84;6560689;27;33681;-83
2022/05/11 11:54:54;;;;;;;;;;;;;;;35.90;18.25;100573.88;6579285;27;34908;-83
2022/05/11 11:58:10;;;;;;;;;;;;;;;37.10;17.86;100570.03;6578571;27;34407;-84
2022/05/11 12:01:16;;;;;;;;;;;;;;;37.96;16.62;100571.81;6558116;27;34434;-82
2022/05/11 12:04:35;;;;;;;;;;;;;;;38.01;15.99;100554.69;6574732;27;34118;-81
2022/05/11 12:18:20;;;;;;;;;;;;;;;38.97;15.96;100562.03;6577265;27;35187;-84
2022/05/11 12:21:31;;;;;;;;;;;;;;;39.12;15.18;100554.72;6563446;27;34357;-82
2022/05/11 12:24:36;;;;;;;;;;;;;;;39.42;14.77;100549.37;6578375;27;33559;-83
2022/05/11 12:27:38;;;;;;;;;;;;;;;40.04;14.84;100553.06;6561934;27;34310;-82
2022/05/11 12:30:42;;;;;;;;;;;;;;;40.52;13.60;100542.25;6563361;27;33556;-81
2022/05/11 12:33:51;;;;;;;;;;;;;;;39.96;12.84;100545.66;6563412;27;35623;-82
2022/05/11 12:36:54;;;;;;;;;;;;;;;40.52;13.68;100542.25;6589000;26;34107;-82
2022/05/11 12:40:06;;;;;;;;;;;;;;;40.82;12.85;100537.91;6577401;27;34211;-82
2022/05/11 12:43:28;;;;;;;;;;;;;;;41.35;12.36;100530.22;6556142;27;34032;-82
2022/05/11 12:46:33;;;;;;;;;;;;;;;41.39;11.92;100524.59;6556730;27;34823;-82
2022/05/11 12:49:36;;;;;;;;;;;;;;;41.39;12.56;100519.78;6560088;27;34298;-81
2022/05/11 12:52:38;;;;;;;;;;;;;;;40.80;11.67;100515.69;6576295;27;34521;-85
2022/05/11 12:55:42;;;;;;;;;;;;;;;41.15;11.93;100509.78;6576269;27;35236;-86
2022/05/11 12:58:50;;;;;;;;;;;;;;;42.92;11.79;100505.53;6555584;27;35178;-86
2022/05/11 13:02:14;;;;;;;;;;;;;;;43.27;11.25;100498.47;6555438;27;33028;-82
2022/05/11 13:05:18;;;;;;;;;;;;;;;42.54;11.46;100504.84;6576389;27;34943;-81
2022/05/11 13:08:22;;;;;;;;;;;;;;;43.21;10.92;100498.03;6557416;27;32715;-82
2022/05/11 13:11:25;;;;;;;;;;;;;;;43.14;11.20;100494.34;6575659;27;34662;-82
2022/05/11 13:14:31;;;;;;;;;;;;;;;41.81;12.08;100500.91;6555097;27;32748;-82
2022/05/11 13:17:36;;;;;;;;;;;;;;;41.56;12.25;100494.97;6555894;27;33552;-82
2022/05/11 13:20:40;;;;;;;;;;;;;;;41.58;12.09;100487.72;6555808;27;33552;-82
2022/05/11 13:23:46;;;;;;;;;;;;;;;41.54;12.68;100494.53;6574731;27;34158;-84
2022/05/11 13:26:51;;;;;;;;;;;;;;;39.62;13.18;100491.00;6574940;27;34782;-85
2022/05/11 13:30:12;;;;;;;;;;;;;;;39.54;13.45;100486.41;6575660;27;34186;-83
2022/05/11 13:33:28;;;;;;;;;;;;;;;40.15;12.92;100471.47;6575817;27;34879;-81
2022/05/11 13:36:43;;;;;;;;;;;;;;;41.41;13.57;100489.09;6555611;27;33508;-81
2022/05/11 13:39:48;;;;;;;;;;;;;;;41.51;12.18;100479.19;6575929;27;34328;-82
2022/05/11 13:42:51;;;;;;;;;;;;;;;42.78;12.04;100466.59;6575388;27;34880;-81
2022/05/11 13:46:09;;;;;;;;;;;;;;;41.29;12.39;100472.41;6556319;27;35106;-81
2022/05/11 13:49:33;;;;;;;;;;;;;;;41.29;12.51;100465.97;6581267;27;34193;-84
2022/05/11 13:52:37;;;;;;;;;;;;;;;41.29;12.78;100460.31;6591671;27;34574;-82
2022/05/11 13:55:44;;;;;;;;;;;;;;;40.17;13.95;100463.44;6584336;27;34947;-82
2022/05/11 13:58:46;;;;;;;;;;;;;;;39.66;13.75;100461.69;6559784;27;33237;-82
2022/05/11 14:01:49;;;;;;;;;;;;;;;38.38;14.76;100456.00;6568125;27;35045;-83
2022/05/11 14:04:52;;;;;;;;;;;;;;;38.47;15.65;100451.88;6578392;27;34785;-86
2022/05/11 14:07:54;;;;;;;;;;;;;;;35.40;16.90;100458.00;6577056;27;34196;-85
2022/05/11 14:10:57;;;;;;;;;;;;;;;33.70;18.78;100450.66;6576469;27;35028;-85
2022/05/11 14:14:00;;;;;;;;;;;;;;;32.11;21.31;100460.19;6578316;27;34865;-85
2022/05/11 14:17:03;;;;;;;;;;;;;;;31.73;21.29;100455.03;6557866;27;33010;-85
2022/05/11 14:20:06;;;;;;;;;;;;;;;30.77;22.39;100452.56;6577174;27;34811;-85
2022/05/11 14:23:10;;;;;;;;;;;;;;;30.17;22.99;100451.53;6556256;27;34224;-85
2022/05/11 14:26:12;;;;;;;;;;;;;;;29.45;24.52;100449.19;6577113;27;35009;-85
2022/05/11 14:29:16;;;;;;;;;;;;;;;29.13;24.83;100447.19;6556719;27;32889;-85
2022/05/11 14:32:25;;;;;;;;;;;;;;;28.97;25.41;100448.53;6576624;27;33859;-84
2022/05/11 14:35:27;;;;;;;;;;;;;;;28.48;26.42;100442.22;6556093;27;33742;-84
2022/05/11 14:38:30;;;;;;;;;;;;;;;28.37;27.32;100448.97;6575644;27;34755;-84
2022/05/11 14:41:34;;;;;;;;;;;;;;;28.37;26.05;100433.19;6556184;27;33458;-84
2022/05/11 14:44:37;;;;;;;;;;;;;;;28.79;25.62;100441.84;6576157;27;34581;-84
2022/05/11 14:48:00;;;;;;;;;;;;;;;28.82;25.62;100432.94;6576904;27;34333;-84
2022/05/11 14:51:04;;;;;;;;;;;;;;;28.88;25.01;100434.50;6559541;27;32705;-84
2022/05/11 14:54:08;;;;;;;;;;;;;;;28.46;26.44;100425.94;6556339;27;33680;-81
2022/05/11 15:03:53;;;;;;;;;;;;;;;28.14;27.22;100426.56;6557434;27;34474;-84
2022/05/11 15:06:56;;;;;;;;;;;;;;;27.84;26.75;100419.38;6576733;27;34355;-82
2022/05/11 15:09:59;;;;;;;;;;;;;;;27.81;27.54;100422.72;6559880;27;33922;-83
2022/05/11 15:13:36;;;;;;;;;;;;;;;27.79;27.32;100414.75;6559730;27;34051;-85
2022/05/11 15:16:31;;;;;;;;;;;;;;;27.86;26.49;100419.09;6573412;27;33992;-82
2022/05/11 15:19:35;;;;;;;;;;;;;;;27.51;26.62;100415.53;6557426;27;34265;-83
2022/05/11 15:22:37;;;;;;;;;;;;;;;27.70;26.56;100418.38;6558271;27;34562;-83
2022/05/11 15:25:41;;;;;;;;;;;;;;;27.75;27.38;100413.63;6561533;27;33623;-83
2022/05/11 15:28:43;;;;;;;;;;;;;;;27.61;26.83;100420.94;6563083;27;33530;-83
2022/05/11 15:31:47;;;;;;;;;;;;;;;27.32;27.42;100420.91;6560818;27;32830;-82
2022/05/11 15:34:50;;;;;;;;;;;;;;;27.20;27.35;100414.94;6580474;27;34322;-83
2022/05/11 15:37:54;;;;;;;;;;;;;;;27.14;27.46;100412.19;6576657;27;34516;-82
2022/05/11 15:40:58;;;;;;;;;;;;;;;27.13;27.60;100413.28;6575832;27;34227;-82
2022/05/11 15:44:01;;;;;;;;;;;;;;;27.00;28.17;100407.56;6576014;27;34321;-82
2022/05/11 15:47:05;;;;;;;;;;;;;;;27.00;27.25;100405.66;6557158;27;34590;-81
2022/05/11 15:50:08;;;;;;;;;;;;;;;26.85;28.64;100409.34;6557554;27;32680;-82
2022/05/11 15:53:16;;;;;;;;;;;;;;;26.85;28.22;100403.84;6557334;27;34688;-83
2022/05/11 15:56:20;;;;;;;;;;;;;;;26.74;28.49;100412.47;6555959;27;33900;-82
2022/05/11 15:59:23;;;;;;;;;;;;;;;26.73;28.48;100406.09;6575822;27;34635;-83
2022/05/11 16:02:26;;;;;;;;;;;;;;;26.71;28.51;100404.75;6556684;27;32563;-82
2022/05/11 16:05:30;;;;;;;;;;;;;;;26.73;30.29;100399.75;6555978;27;33096;-82
2022/05/11 16:08:33;;;;;;;;;;;;;;;26.59;28.32;100399.53;6556640;27;34906;-82
2022/05/11 16:11:37;;;;;;;;;;;;;;;26.63;29.11;100390.41;6558653;27;32918;-82
2022/05/11 16:14:40;;;;;;;;;;;;;;;26.67;28.24;100390.66;6578091;27;34236;-84
2022/05/11 16:21:05;;;;;;;;;;;;;;;26.61;28.44;100384.34;6561208;27;34963;-85
2022/05/11 16:24:08;;;;;;;;;;;;;;;26.46;28.96;100387.97;6580159;27;35216;-85
2022/05/11 16:27:10;;;;;;;;;;;;;;;26.42;28.75;100389.66;6557947;26;34230;-85
2022/05/11 16:30:13;;;;;;;;;;;;;;;26.39;29.35;100389.41;6557458;27;35428;-85
2022/05/11 16:33:16;;;;;;;;;;;;;;;26.30;29.51;100394.69;6578526;27;35027;-85
2022/05/11 16:36:19;;;;;;;;;;;;;;;26.23;29.88;100388.63;6559295;27;33443;-85
2022/05/11 16:39:23;;;;;;;;;;;;;;;26.10;30.65;100392.00;6556857;27;33131;-82
2022/05/11 16:42:25;;;;;;;;;;;;;;;25.98;30.44;100403.34;6557347;27;34847;-83
2022/05/11 16:45:33;;;;;;;;;;;;;;;25.93;29.96;100400.59;6578869;27;35119;-83
2022/05/11 16:48:37;;;;;;;;;;;;;;;25.87;30.08;100398.97;6557029;27;33229;-83
2022/05/11 16:51:40;;;;;;;;;;;;;;;25.79;30.45;100395.63;6557716;27;33707;-84
2022/05/11 16:54:42;;;;;;;;;;;;;;;25.66;31.36;100390.69;6558431;27;33240;-83
2022/05/11 16:57:45;;;;;;;;;;;;;;;25.61;31.99;100392.63;6556785;27;34050;-87
2022/05/11 17:00:52;;;;;;;;;;;;;;;25.49;31.00;100393.72;6576344;27;34959;-87
2022/05/11 17:03:55;;;;;;;;;;;;;;;25.37;31.47;100395.94;6556573;27;33117;-85
2022/05/11 17:06:58;;;;;;;;;;;;;;;25.30;32.19;100403.66;6556778;27;34181;-84
2022/05/11 17:10:00;;;;;;;;;;;;;;;25.14;33.45;100396.50;6556462;27;35439;-83
2022/05/11 17:13:04;;;;;;;;;;;;;;;24.95;33.75;100401.66;6547742;27;34087;-83
2022/05/11 17:16:07;;;;;;;;;;;;;;;24.84;33.38;100396.13;6549535;27;34702;-84
2022/05/11 17:19:10;;;;;;;;;;;;;;;24.74;33.39;100395.28;6547895;27;33743;-84
